sensor_id;sensor_type;location;lat;lon;timestamp;P1;durP1;ratioP1;P2;durP2;ratioP2
27199;SDS011;14714;48.106;11.546;2022-08-19T00:00:17;16.10;;;7.90;;
27199;SDS011;14714;48.106;11.546;2022-08-19T00:02:45;19.65;;;9.52;;
27199;SDS011;14714;48.106;11.546;2022-08-19T00:05:15;19.63;;;9.95;;
27199;SDS011;14714;48.106;11.546;2022-08-19T00:07:42;24.40;;;9.50;;
27199;SDS011;14714;48.106;11.546;2022-08-19T00:10:10;25.17;;;10.70;;
27199;SDS011;14714;48.106;11.546;2022-08-19T00:12:39;16.67;;;8.73;;
27199;SDS011;14714;48.106;11.546;2022-08-19T00:15:13;21.15;;;9.68;;
27199;SDS011;14714;48.106;11.546;2022-08-19T00:17:42;24.83;;;10.10;;
27199;SDS011;14714;48.106;11.546;2022-08-19T00:20:11;18.13;;;9.20;;
27199;SDS011;14714;48.106;11.546;2022-08-19T00:22:39;19.60;;;9.32;;
27199;SDS011;14714;48.106;11.546;2022-08-19T00:25:07;17.98;;;8.50;;
27199;SDS011;14714;48.106;11.546;2022-08-19T00:27:35;18.63;;;10.05;;
27199;SDS011;14714;48.106;11.546;2022-08-19T00:30:02;26.75;;;11.80;;
27199;SDS011;14714;48.106;11.546;2022-08-19T00:32:31;20.65;;;9.65;;
27199;SDS011;14714;48.106;11.546;2022-08-19T00:35:00;17.83;;;9.68;;
27199;SDS011;14714;48.106;11.546;2022-08-19T00:37:28;21.98;;;10.05;;
27199;SDS011;14714;48.106;11.546;2022-08-19T00:39:54;22.00;;;10.55;;
27199;SDS011;14714;48.106;11.546;2022-08-19T00:42:22;31.52;;;12.25;;
27199;SDS011;14714;48.106;11.546;2022-08-19T00:44:49;27.77;;;11.25;;
27199;SDS011;14714;48.106;11.546;2022-08-19T00:47:16;20.70;;;10.55;;
27199;SDS011;14714;48.106;11.546;2022-08-19T00:49:47;24.27;;;9.70;;
27199;SDS011;14714;48.106;11.546;2022-08-19T00:52:26;22.45;;;9.57;;
27199;SDS011;14714;48.106;11.546;2022-08-19T00:54:55;22.35;;;10.20;;
27199;SDS011;14714;48.106;11.546;2022-08-19T00:57:28;26.27;;;10.77;;
27199;SDS011;14714;48.106;11.546;2022-08-19T01:00:01;25.80;;;11.35;;
27199;SDS011;14714;48.106;11.546;2022-08-19T01:02:31;16.67;;;9.25;;
27199;SDS011;14714;48.106;11.546;2022-08-19T01:04:59;30.48;;;11.40;;
27199;SDS011;14714;48.106;11.546;2022-08-19T01:07:30;22.92;;;11.82;;
27199;SDS011;14714;48.106;11.546;2022-08-19T01:10:03;19.33;;;10.90;;
27199;SDS011;14714;48.106;11.546;2022-08-19T01:12:32;20.52;;;10.77;;
27199;SDS011;14714;48.106;11.546;2022-08-19T01:15:00;21.83;;;11.15;;
27199;SDS011;14714;48.106;11.546;2022-08-19T01:17:28;34.85;;;13.20;;
27199;SDS011;14714;48.106;11.546;2022-08-19T01:19:55;38.35;;;14.18;;
27199;SDS011;14714;48.106;11.546;2022-08-19T01:25:01;24.77;;;10.77;;
27199;SDS011;14714;48.106;11.546;2022-08-19T01:27:39;28.48;;;13.38;;
27199;SDS011;14714;48.106;11.546;2022-08-19T01:30:10;31.30;;;11.90;;
27199;SDS011;14714;48.106;11.546;2022-08-19T01:32:42;31.35;;;13.10;;
27199;SDS011;14714;48.106;11.546;2022-08-19T01:35:10;40.45;;;14.88;;
27199;SDS011;14714;48.106;11.546;2022-08-19T01:37:58;35.45;;;14.32;;
27199;SDS011;14714;48.106;11.546;2022-08-19T01:40:35;28.92;;;12.82;;
27199;SDS011;14714;48.106;11.546;2022-08-19T01:43:04;40.55;;;14.02;;
27199;SDS011;14714;48.106;11.546;2022-08-19T01:45:32;34.08;;;14.50;;
27199;SDS011;14714;48.106;11.546;2022-08-19T01:48:00;21.67;;;11.38;;
27199;SDS011;14714;48.106;11.546;2022-08-19T01:50:28;21.98;;;11.18;;
27199;SDS011;14714;48.106;11.546;2022-08-19T01:52:57;27.50;;;12.40;;
27199;SDS011;14714;48.106;11.546;2022-08-19T01:55:32;30.83;;;13.10;;
27199;SDS011;14714;48.106;11.546;2022-08-19T01:58:00;29.83;;;12.90;;
27199;SDS011;14714;48.106;11.546;2022-08-19T02:00:30;27.07;;;11.00;;
27199;SDS011;14714;48.106;11.546;2022-08-19T02:02:58;25.73;;;11.68;;
27199;SDS011;14714;48.106;11.546;2022-08-19T02:05:25;24.40;;;11.93;;
27199;SDS011;14714;48.106;11.546;2022-08-19T02:07:52;21.55;;;10.50;;
27199;SDS011;14714;48.106;11.546;2022-08-19T02:10:20;18.45;;;10.85;;
27199;SDS011;14714;48.106;11.546;2022-08-19T02:12:48;24.70;;;11.18;;
27199;SDS011;14714;48.106;11.546;2022-08-19T02:15:16;22.63;;;10.90;;
27199;SDS011;14714;48.106;11.546;2022-08-19T02:17:45;19.95;;;11.02;;
27199;SDS011;14714;48.106;11.546;2022-08-19T02:20:13;21.13;;;11.27;;
27199;SDS011;14714;48.106;11.546;2022-08-19T02:22:41;20.40;;;10.68;;
27199;SDS011;14714;48.106;11.546;2022-08-19T02:25:12;28.77;;;12.40;;
27199;SDS011;14714;48.106;11.546;2022-08-19T02:27:40;20.33;;;10.30;;
27199;SDS011;14714;48.106;11.546;2022-08-19T02:30:09;18.05;;;9.57;;
27199;SDS011;14714;48.106;11.546;2022-08-19T02:32:39;20.75;;;9.75;;
27199;SDS011;14714;48.106;11.546;2022-08-19T02:35:10;20.13;;;10.18;;
27199;SDS011;14714;48.106;11.546;2022-08-19T02:37:38;22.75;;;10.93;;
27199;SDS011;14714;48.106;11.546;2022-08-19T02:40:25;16.50;;;9.23;;
27199;SDS011;14714;48.106;11.546;2022-08-19T02:42:53;16.52;;;8.48;;
27199;SDS011;14714;48.106;11.546;2022-08-19T02:45:20;16.15;;;9.38;;
27199;SDS011;14714;48.106;11.546;2022-08-19T02:47:47;15.50;;;9.93;;
27199;SDS011;14714;48.106;11.546;2022-08-19T02:50:14;12.63;;;8.32;;
27199;SDS011;14714;48.106;11.546;2022-08-19T02:52:41;11.27;;;7.60;;
27199;SDS011;14714;48.106;11.546;2022-08-19T02:55:07;15.05;;;9.07;;
27199;SDS011;14714;48.106;11.546;2022-08-19T02:57:34;14.63;;;8.15;;
27199;SDS011;14714;48.106;11.546;2022-08-19T03:00:04;21.17;;;9.48;;
27199;SDS011;14714;48.106;11.546;2022-08-19T03:02:32;13.02;;;8.57;;
27199;SDS011;14714;48.106;11.546;2022-08-19T03:04:59;13.23;;;7.72;;
27199;SDS011;14714;48.106;11.546;2022-08-19T03:07:27;15.18;;;8.32;;
27199;SDS011;14714;48.106;11.546;2022-08-19T03:09:54;13.63;;;7.57;;
27199;SDS011;14714;48.106;11.546;2022-08-19T03:12:21;11.43;;;7.70;;
27199;SDS011;14714;48.106;11.546;2022-08-19T03:14:48;13.13;;;8.00;;
27199;SDS011;14714;48.106;11.546;2022-08-19T03:17:14;11.10;;;7.20;;
27199;SDS011;14714;48.106;11.546;2022-08-19T03:19:41;15.77;;;9.35;;
27199;SDS011;14714;48.106;11.546;2022-08-19T03:22:09;14.05;;;8.60;;
27199;SDS011;14714;48.106;11.546;2022-08-19T03:24:36;17.67;;;9.05;;
27199;SDS011;14714;48.106;11.546;2022-08-19T03:27:04;17.35;;;9.73;;
27199;SDS011;14714;48.106;11.546;2022-08-19T03:29:31;17.67;;;9.27;;
27199;SDS011;14714;48.106;11.546;2022-08-19T03:32:08;14.32;;;7.78;;
27199;SDS011;14714;48.106;11.546;2022-08-19T03:34:55;12.07;;;7.75;;
27199;SDS011;14714;48.106;11.546;2022-08-19T03:37:22;15.38;;;7.50;;
27199;SDS011;14714;48.106;11.546;2022-08-19T03:39:49;14.38;;;8.35;;
27199;SDS011;14714;48.106;11.546;2022-08-19T03:42:16;9.90;;;7.20;;
27199;SDS011;14714;48.106;11.546;2022-08-19T03:45:03;17.50;;;9.05;;
27199;SDS011;14714;48.106;11.546;2022-08-19T03:47:30;13.02;;;8.00;;
27199;SDS011;14714;48.106;11.546;2022-08-19T03:49:57;11.48;;;8.18;;
27199;SDS011;14714;48.106;11.546;2022-08-19T03:52:24;11.75;;;8.05;;
27199;SDS011;14714;48.106;11.546;2022-08-19T03:54:50;10.65;;;7.90;;
27199;SDS011;14714;48.106;11.546;2022-08-19T03:57:17;10.68;;;7.15;;
27199;SDS011;14714;48.106;11.546;2022-08-19T03:59:44;13.52;;;7.85;;
27199;SDS011;14714;48.106;11.546;2022-08-19T04:02:11;10.95;;;7.80;;
27199;SDS011;14714;48.106;11.546;2022-08-19T04:04:39;13.45;;;8.23;;
27199;SDS011;14714;48.106;11.546;2022-08-19T04:07:09;15.73;;;8.73;;
27199;SDS011;14714;48.106;11.546;2022-08-19T04:09:39;12.95;;;8.70;;
27199;SDS011;14714;48.106;11.546;2022-08-19T04:12:06;13.07;;;8.60;;
27199;SDS011;14714;48.106;11.546;2022-08-19T04:14:34;11.52;;;8.27;;
27199;SDS011;14714;48.106;11.546;2022-08-19T04:17:01;12.55;;;8.27;;
27199;SDS011;14714;48.106;11.546;2022-08-19T04:19:31;13.25;;;8.07;;
27199;SDS011;14714;48.106;11.546;2022-08-19T04:22:00;12.80;;;8.20;;
27199;SDS011;14714;48.106;11.546;2022-08-19T04:24:27;16.88;;;8.30;;
27199;SDS011;14714;48.106;11.546;2022-08-19T04:26:54;15.15;;;8.82;;
27199;SDS011;14714;48.106;11.546;2022-08-19T04:29:22;19.67;;;10.20;;
27199;SDS011;14714;48.106;11.546;2022-08-19T04:31:52;18.25;;;9.27;;
27199;SDS011;14714;48.106;11.546;2022-08-19T04:34:20;17.45;;;9.32;;
27199;SDS011;14714;48.106;11.546;2022-08-19T04:36:48;16.30;;;9.00;;
27199;SDS011;14714;48.106;11.546;2022-08-19T04:39:21;15.48;;;8.20;;
27199;SDS011;14714;48.106;11.546;2022-08-19T04:42:10;14.00;;;8.07;;
27199;SDS011;14714;48.106;11.546;2022-08-19T04:44:56;15.50;;;9.20;;
27199;SDS011;14714;48.106;11.546;2022-08-19T04:47:25;24.02;;;11.32;;
27199;SDS011;14714;48.106;11.546;2022-08-19T04:50:12;21.83;;;10.32;;
27199;SDS011;14714;48.106;11.546;2022-08-19T04:52:39;23.05;;;10.13;;
27199;SDS011;14714;48.106;11.546;2022-08-19T04:55:12;17.70;;;9.35;;
27199;SDS011;14714;48.106;11.546;2022-08-19T04:57:40;15.50;;;8.32;;
27199;SDS011;14714;48.106;11.546;2022-08-19T05:00:10;17.42;;;9.68;;
27199;SDS011;14714;48.106;11.546;2022-08-19T05:02:38;14.88;;;9.40;;
27199;SDS011;14714;48.106;11.546;2022-08-19T05:05:05;18.58;;;9.52;;
27199;SDS011;14714;48.106;11.546;2022-08-19T05:07:32;20.42;;;10.38;;
27199;SDS011;14714;48.106;11.546;2022-08-19T05:10:00;21.08;;;10.68;;
27199;SDS011;14714;48.106;11.546;2022-08-19T05:12:27;20.30;;;9.70;;
27199;SDS011;14714;48.106;11.546;2022-08-19T05:14:55;18.08;;;10.07;;
27199;SDS011;14714;48.106;11.546;2022-08-19T05:17:24;14.25;;;9.23;;
27199;SDS011;14714;48.106;11.546;2022-08-19T05:19:54;14.20;;;9.30;;
27199;SDS011;14714;48.106;11.546;2022-08-19T05:22:40;15.15;;;9.57;;
27199;SDS011;14714;48.106;11.546;2022-08-19T05:25:08;21.20;;;10.10;;
27199;SDS011;14714;48.106;11.546;2022-08-19T05:27:43;14.60;;;8.95;;
27199;SDS011;14714;48.106;11.546;2022-08-19T05:30:10;15.63;;;9.35;;
27199;SDS011;14714;48.106;11.546;2022-08-19T05:32:38;15.95;;;9.07;;
27199;SDS011;14714;48.106;11.546;2022-08-19T05:35:05;23.50;;;10.55;;
27199;SDS011;14714;48.106;11.546;2022-08-19T05:37:33;16.58;;;10.05;;
27199;SDS011;14714;48.106;11.546;2022-08-19T05:40:00;17.77;;;9.85;;
27199;SDS011;14714;48.106;11.546;2022-08-19T05:42:27;16.20;;;8.80;;
27199;SDS011;14714;48.106;11.546;2022-08-19T05:44:54;16.95;;;10.02;;
27199;SDS011;14714;48.106;11.546;2022-08-19T05:47:22;17.50;;;10.82;;
27199;SDS011;14714;48.106;11.546;2022-08-19T05:49:49;18.08;;;9.90;;
27199;SDS011;14714;48.106;11.546;2022-08-19T05:52:17;19.33;;;10.80;;
27199;SDS011;14714;48.106;11.546;2022-08-19T05:54:45;17.30;;;10.23;;
27199;SDS011;14714;48.106;11.546;2022-08-19T05:57:16;20.38;;;11.50;;
27199;SDS011;14714;48.106;11.546;2022-08-19T05:59:44;16.45;;;10.55;;
27199;SDS011;14714;48.106;11.546;2022-08-19T06:02:23;19.27;;;11.07;;
27199;SDS011;14714;48.106;11.546;2022-08-19T06:04:54;23.98;;;12.20;;
27199;SDS011;14714;48.106;11.546;2022-08-19T06:07:21;20.52;;;12.40;;
27199;SDS011;14714;48.106;11.546;2022-08-19T06:09:48;22.88;;;12.35;;
27199;SDS011;14714;48.106;11.546;2022-08-19T06:12:29;22.67;;;13.70;;
27199;SDS011;14714;48.106;11.546;2022-08-19T06:15:01;22.98;;;14.07;;
27199;SDS011;14714;48.106;11.546;2022-08-19T06:17:36;23.58;;;13.77;;
27199;SDS011;14714;48.106;11.546;2022-08-19T06:20:04;26.25;;;14.52;;
27199;SDS011;14714;48.106;11.546;2022-08-19T06:22:37;25.67;;;14.40;;
27199;SDS011;14714;48.106;11.546;2022-08-19T06:25:05;22.10;;;14.25;;
27199;SDS011;14714;48.106;11.546;2022-08-19T06:27:32;21.42;;;14.07;;
27199;SDS011;14714;48.106;11.546;2022-08-19T06:29:59;22.52;;;14.45;;
27199;SDS011;14714;48.106;11.546;2022-08-19T06:32:27;23.77;;;14.65;;
27199;SDS011;14714;48.106;11.546;2022-08-19T06:34:53;30.27;;;16.67;;
27199;SDS011;14714;48.106;11.546;2022-08-19T06:37:21;28.92;;;17.02;;
27199;SDS011;14714;48.106;11.546;2022-08-19T06:39:48;29.10;;;16.83;;
27199;SDS011;14714;48.106;11.546;2022-08-19T06:42:16;33.10;;;18.52;;
27199;SDS011;14714;48.106;11.546;2022-08-19T06:47:19;26.58;;;17.05;;
27199;SDS011;14714;48.106;11.546;2022-08-19T06:49:50;29.05;;;18.00;;
27199;SDS011;14714;48.106;11.546;2022-08-19T06:52:19;31.23;;;17.80;;
27199;SDS011;14714;48.106;11.546;2022-08-19T06:54:46;28.38;;;16.88;;
27199;SDS011;14714;48.106;11.546;2022-08-19T06:57:21;33.78;;;18.52;;
27199;SDS011;14714;48.106;11.546;2022-08-19T06:59:52;34.65;;;19.33;;
27199;SDS011;14714;48.106;11.546;2022-08-19T07:02:19;36.42;;;19.60;;
27199;SDS011;14714;48.106;11.546;2022-08-19T07:04:47;31.20;;;19.42;;
27199;SDS011;14714;48.106;11.546;2022-08-19T07:07:18;34.33;;;19.15;;
27199;SDS011;14714;48.106;11.546;2022-08-19T07:09:47;31.52;;;18.50;;
27199;SDS011;14714;48.106;11.546;2022-08-19T07:12:29;30.73;;;18.60;;
27199;SDS011;14714;48.106;11.546;2022-08-19T07:15:01;26.63;;;17.70;;
27199;SDS011;14714;48.106;11.546;2022-08-19T07:17:29;28.27;;;18.33;;
27199;SDS011;14714;48.106;11.546;2022-08-19T07:19:59;29.05;;;18.02;;
27199;SDS011;14714;48.106;11.546;2022-08-19T07:22:32;24.13;;;16.75;;
27199;SDS011;14714;48.106;11.546;2022-08-19T07:25:01;24.67;;;16.77;;
27199;SDS011;14714;48.106;11.546;2022-08-19T07:27:30;29.08;;;19.15;;
27199;SDS011;14714;48.106;11.546;2022-08-19T07:29:59;24.88;;;17.90;;
27199;SDS011;14714;48.106;11.546;2022-08-19T07:32:26;24.17;;;18.00;;
27199;SDS011;14714;48.106;11.546;2022-08-19T07:34:53;29.45;;;18.23;;
27199;SDS011;14714;48.106;11.546;2022-08-19T07:37:22;29.02;;;18.63;;
27199;SDS011;14714;48.106;11.546;2022-08-19T07:39:51;28.90;;;20.23;;
27199;SDS011;14714;48.106;11.546;2022-08-19T07:42:18;29.63;;;20.92;;
27199;SDS011;14714;48.106;11.546;2022-08-19T07:44:47;28.10;;;19.60;;
27199;SDS011;14714;48.106;11.546;2022-08-19T07:47:16;33.33;;;20.60;;
27199;SDS011;14714;48.106;11.546;2022-08-19T07:50:04;36.33;;;22.70;;
27199;SDS011;14714;48.106;11.546;2022-08-19T07:52:33;28.70;;;20.87;;
27199;SDS011;14714;48.106;11.546;2022-08-19T07:55:03;29.58;;;20.65;;
27199;SDS011;14714;48.106;11.546;2022-08-19T07:57:30;25.42;;;19.52;;
27199;SDS011;14714;48.106;11.546;2022-08-19T07:59:58;27.95;;;19.52;;
27199;SDS011;14714;48.106;11.546;2022-08-19T08:02:25;27.33;;;20.33;;
27199;SDS011;14714;48.106;11.546;2022-08-19T08:04:51;26.60;;;20.55;;
27199;SDS011;14714;48.106;11.546;2022-08-19T08:07:38;30.70;;;20.20;;
27199;SDS011;14714;48.106;11.546;2022-08-19T08:10:24;30.75;;;20.35;;
27199;SDS011;14714;48.106;11.546;2022-08-19T08:12:52;29.63;;;21.38;;
27199;SDS011;14714;48.106;11.546;2022-08-19T08:15:37;30.08;;;21.65;;
27199;SDS011;14714;48.106;11.546;2022-08-19T08:18:08;33.15;;;23.05;;
27199;SDS011;14714;48.106;11.546;2022-08-19T08:20:36;33.20;;;23.10;;
27199;SDS011;14714;48.106;11.546;2022-08-19T08:23:03;35.17;;;25.02;;
27199;SDS011;14714;48.106;11.546;2022-08-19T08:25:48;31.58;;;22.17;;
27199;SDS011;14714;48.106;11.546;2022-08-19T08:28:16;31.75;;;23.80;;
27199;SDS011;14714;48.106;11.546;2022-08-19T08:30:45;30.85;;;22.65;;
27199;SDS011;14714;48.106;11.546;2022-08-19T08:33:17;35.80;;;24.17;;
27199;SDS011;14714;48.106;11.546;2022-08-19T08:35:58;31.75;;;23.13;;
27199;SDS011;14714;48.106;11.546;2022-08-19T08:38:25;32.58;;;23.58;;
27199;SDS011;14714;48.106;11.546;2022-08-19T08:40:53;33.40;;;23.30;;
27199;SDS011;14714;48.106;11.546;2022-08-19T08:43:33;32.08;;;22.42;;
27199;SDS011;14714;48.106;11.546;2022-08-19T08:46:13;33.47;;;22.58;;
27199;SDS011;14714;48.106;11.546;2022-08-19T08:49:02;31.60;;;21.55;;
27199;SDS011;14714;48.106;11.546;2022-08-19T08:51:34;30.35;;;21.05;;
27199;SDS011;14714;48.106;11.546;2022-08-19T08:54:12;32.60;;;22.50;;
27199;SDS011;14714;48.106;11.546;2022-08-19T08:56:41;30.58;;;21.75;;
27199;SDS011;14714;48.106;11.546;2022-08-19T08:59:19;30.02;;;21.83;;
27199;SDS011;14714;48.106;11.546;2022-08-19T09:01:52;29.80;;;20.63;;
27199;SDS011;14714;48.106;11.546;2022-08-19T09:04:19;30.50;;;20.65;;
27199;SDS011;14714;48.106;11.546;2022-08-19T09:06:51;30.85;;;21.52;;
27199;SDS011;14714;48.106;11.546;2022-08-19T09:09:26;32.15;;;22.25;;
27199;SDS011;14714;48.106;11.546;2022-08-19T09:12:14;30.92;;;22.02;;
27199;SDS011;14714;48.106;11.546;2022-08-19T09:14:53;31.85;;;21.92;;
27199;SDS011;14714;48.106;11.546;2022-08-19T09:17:24;30.88;;;21.17;;
27199;SDS011;14714;48.106;11.546;2022-08-19T09:20:02;30.88;;;20.75;;
27199;SDS011;14714;48.106;11.546;2022-08-19T09:22:41;30.73;;;20.75;;
27199;SDS011;14714;48.106;11.546;2022-08-19T09:25:14;26.77;;;19.48;;
27199;SDS011;14714;48.106;11.546;2022-08-19T09:27:54;27.77;;;19.77;;
27199;SDS011;14714;48.106;11.546;2022-08-19T09:30:29;26.25;;;19.35;;
27199;SDS011;14714;48.106;11.546;2022-08-19T09:35:25;29.30;;;20.70;;
27199;SDS011;14714;48.106;11.546;2022-08-19T09:37:55;28.48;;;20.40;;
27199;SDS011;14714;48.106;11.546;2022-08-19T09:40:25;27.13;;;19.30;;
27199;SDS011;14714;48.106;11.546;2022-08-19T09:42:56;29.05;;;19.85;;
27199;SDS011;14714;48.106;11.546;2022-08-19T09:45:26;31.95;;;21.23;;
27199;SDS011;14714;48.106;11.546;2022-08-19T09:47:53;30.05;;;19.92;;
27199;SDS011;14714;48.106;11.546;2022-08-19T09:50:21;29.20;;;20.27;;
27199;SDS011;14714;48.106;11.546;2022-08-19T09:52:49;30.17;;;20.35;;
27199;SDS011;14714;48.106;11.546;2022-08-19T09:55:23;33.35;;;21.50;;
27199;SDS011;14714;48.106;11.546;2022-08-19T09:57:57;30.77;;;21.27;;
27199;SDS011;14714;48.106;11.546;2022-08-19T10:00:28;32.25;;;21.88;;
27199;SDS011;14714;48.106;11.546;2022-08-19T10:02:56;32.65;;;20.58;;
27199;SDS011;14714;48.106;11.546;2022-08-19T10:05:23;28.00;;;20.90;;
27199;SDS011;14714;48.106;11.546;2022-08-19T10:08:09;26.25;;;18.92;;
27199;SDS011;14714;48.106;11.546;2022-08-19T10:10:39;28.98;;;18.33;;
27199;SDS011;14714;48.106;11.546;2022-08-19T10:13:12;25.17;;;17.58;;
27199;SDS011;14714;48.106;11.546;2022-08-19T10:15:42;23.23;;;17.60;;
27199;SDS011;14714;48.106;11.546;2022-08-19T10:18:14;24.58;;;18.17;;
27199;SDS011;14714;48.106;11.546;2022-08-19T10:20:44;27.40;;;19.95;;
27199;SDS011;14714;48.106;11.546;2022-08-19T10:23:17;26.88;;;19.48;;
27199;SDS011;14714;48.106;11.546;2022-08-19T10:25:45;20.48;;;16.35;;
27199;SDS011;14714;48.106;11.546;2022-08-19T10:28:13;21.70;;;17.08;;
27199;SDS011;14714;48.106;11.546;2022-08-19T10:30:40;20.58;;;15.88;;
27199;SDS011;14714;48.106;11.546;2022-08-19T10:33:08;19.00;;;15.15;;
27199;SDS011;14714;48.106;11.546;2022-08-19T10:35:36;19.85;;;15.43;;
27199;SDS011;14714;48.106;11.546;2022-08-19T10:38:21;18.88;;;14.50;;
27199;SDS011;14714;48.106;11.546;2022-08-19T10:40:55;19.42;;;14.10;;
27199;SDS011;14714;48.106;11.546;2022-08-19T10:43:22;19.42;;;14.02;;
27199;SDS011;14714;48.106;11.546;2022-08-19T10:45:54;18.70;;;15.00;;
27199;SDS011;14714;48.106;11.546;2022-08-19T10:48:28;18.80;;;14.00;;
27199;SDS011;14714;48.106;11.546;2022-08-19T10:50:56;17.88;;;13.13;;
27199;SDS011;14714;48.106;11.546;2022-08-19T10:53:49;17.40;;;13.20;;
27199;SDS011;14714;48.106;11.546;2022-08-19T10:56:17;15.52;;;12.35;;
27199;SDS011;14714;48.106;11.546;2022-08-19T10:59:03;11.23;;;9.45;;
27199;SDS011;14714;48.106;11.546;2022-08-19T11:01:31;11.38;;;9.02;;
27199;SDS011;14714;48.106;11.546;2022-08-19T11:04:00;10.55;;;8.38;;
27199;SDS011;14714;48.106;11.546;2022-08-19T11:06:28;10.02;;;8.30;;
27199;SDS011;14714;48.106;11.546;2022-08-19T11:08:57;8.95;;;7.35;;
27199;SDS011;14714;48.106;11.546;2022-08-19T11:11:25;9.43;;;7.30;;
27199;SDS011;14714;48.106;11.546;2022-08-19T11:13:54;7.32;;;6.40;;
27199;SDS011;14714;48.106;11.546;2022-08-19T11:16:22;8.65;;;7.25;;
27199;SDS011;14714;48.106;11.546;2022-08-19T11:18:53;9.20;;;7.68;;
27199;SDS011;14714;48.106;11.546;2022-08-19T11:21:29;10.63;;;7.70;;
27199;SDS011;14714;48.106;11.546;2022-08-19T11:24:01;9.27;;;7.35;;
27199;SDS011;14714;48.106;11.546;2022-08-19T11:26:33;9.32;;;7.70;;
27199;SDS011;14714;48.106;11.546;2022-08-19T11:29:01;8.55;;;7.43;;
27199;SDS011;14714;48.106;11.546;2022-08-19T11:31:34;12.13;;;9.18;;
27199;SDS011;14714;48.106;11.546;2022-08-19T11:34:02;15.20;;;10.38;;
27199;SDS011;14714;48.106;11.546;2022-08-19T11:36:33;11.85;;;9.82;;
27199;SDS011;14714;48.106;11.546;2022-08-19T11:39:03;12.20;;;9.80;;
27199;SDS011;14714;48.106;11.546;2022-08-19T11:41:32;10.70;;;9.52;;
27199;SDS011;14714;48.106;11.546;2022-08-19T11:43:59;12.25;;;9.50;;
27199;SDS011;14714;48.106;11.546;2022-08-19T11:46:28;8.65;;;7.32;;
27199;SDS011;14714;48.106;11.546;2022-08-19T11:48:56;9.13;;;7.53;;
27199;SDS011;14714;48.106;11.546;2022-08-19T11:51:25;8.02;;;6.43;;
27199;SDS011;14714;48.106;11.546;2022-08-19T11:53:53;6.47;;;5.50;;
27199;SDS011;14714;48.106;11.546;2022-08-19T11:56:21;6.47;;;5.78;;
27199;SDS011;14714;48.106;11.546;2022-08-19T11:58:50;7.35;;;5.60;;
27199;SDS011;14714;48.106;11.546;2022-08-19T12:01:19;7.82;;;5.55;;
27199;SDS011;14714;48.106;11.546;2022-08-19T12:03:48;8.15;;;6.05;;
27199;SDS011;14714;48.106;11.546;2022-08-19T12:06:18;5.32;;;4.82;;
27199;SDS011;14714;48.106;11.546;2022-08-19T12:08:55;6.35;;;4.68;;
27199;SDS011;14714;48.106;11.546;2022-08-19T12:11:23;4.63;;;4.03;;
27199;SDS011;14714;48.106;11.546;2022-08-19T12:13:50;3.75;;;3.35;;
27199;SDS011;14714;48.106;11.546;2022-08-19T12:16:19;3.10;;;2.78;;
27199;SDS011;14714;48.106;11.546;2022-08-19T12:18:48;3.05;;;2.63;;
27199;SDS011;14714;48.106;11.546;2022-08-19T12:21:18;2.40;;;2.20;;
27199;SDS011;14714;48.106;11.546;2022-08-19T12:23:48;2.83;;;2.50;;
27199;SDS011;14714;48.106;11.546;2022-08-19T12:26:20;2.72;;;2.10;;
27199;SDS011;14714;48.106;11.546;2022-08-19T12:28:48;3.08;;;2.15;;
27199;SDS011;14714;48.106;11.546;2022-08-19T12:31:15;3.53;;;1.80;;
27199;SDS011;14714;48.106;11.546;2022-08-19T12:33:42;1.70;;;1.60;;
27199;SDS011;14714;48.106;11.546;2022-08-19T12:36:09;3.15;;;1.58;;
27199;SDS011;14714;48.106;11.546;2022-08-19T12:38:38;2.35;;;1.75;;
27199;SDS011;14714;48.106;11.546;2022-08-19T12:41:06;1.70;;;1.60;;
27199;SDS011;14714;48.106;11.546;2022-08-19T12:43:35;2.75;;;1.85;;
27199;SDS011;14714;48.106;11.546;2022-08-19T12:46:04;1.95;;;1.70;;
27199;SDS011;14714;48.106;11.546;2022-08-19T12:48:32;1.70;;;1.60;;
27199;SDS011;14714;48.106;11.546;2022-08-19T12:51:00;1.70;;;1.60;;
27199;SDS011;14714;48.106;11.546;2022-08-19T12:53:32;1.70;;;1.60;;
27199;SDS011;14714;48.106;11.546;2022-08-19T12:56:02;3.70;;;1.48;;
27199;SDS011;14714;48.106;11.546;2022-08-19T12:58:32;1.60;;;1.50;;
27199;SDS011;14714;48.106;11.546;2022-08-19T13:01:07;2.03;;;1.60;;
27199;SDS011;14714;48.106;11.546;2022-08-19T13:03:38;1.60;;;1.50;;
27199;SDS011;14714;48.106;11.546;2022-08-19T13:06:06;2.30;;;1.63;;
27199;SDS011;14714;48.106;11.546;2022-08-19T13:08:34;2.00;;;1.70;;
27199;SDS011;14714;48.106;11.546;2022-08-19T13:11:08;1.95;;;1.75;;
27199;SDS011;14714;48.106;11.546;2022-08-19T13:13:40;3.05;;;1.80;;
27199;SDS011;14714;48.106;11.546;2022-08-19T13:16:11;2.28;;;2.05;;
27199;SDS011;14714;48.106;11.546;2022-08-19T13:18:39;3.15;;;1.80;;
27199;SDS011;14714;48.106;11.546;2022-08-19T13:21:09;1.95;;;1.85;;
27199;SDS011;14714;48.106;11.546;2022-08-19T13:23:38;1.92;;;1.80;;
27199;SDS011;14714;48.106;11.546;2022-08-19T13:26:07;2.08;;;1.88;;
27199;SDS011;14714;48.106;11.546;2022-08-19T13:28:35;1.70;;;1.60;;
27199;SDS011;14714;48.106;11.546;2022-08-19T13:31:21;2.00;;;1.80;;
27199;SDS011;14714;48.106;11.546;2022-08-19T13:34:09;1.98;;;1.77;;
27199;SDS011;14714;48.106;11.546;2022-08-19T13:36:37;2.10;;;1.90;;
27199;SDS011;14714;48.106;11.546;2022-08-19T13:39:05;1.80;;;1.70;;
27199;SDS011;14714;48.106;11.546;2022-08-19T13:41:33;2.05;;;1.70;;
27199;SDS011;14714;48.106;11.546;2022-08-19T13:44:01;1.92;;;1.80;;
27199;SDS011;14714;48.106;11.546;2022-08-19T13:46:29;2.20;;;2.00;;
27199;SDS011;14714;48.106;11.546;2022-08-19T13:48:56;2.15;;;1.80;;
27199;SDS011;14714;48.106;11.546;2022-08-19T13:51:23;2.20;;;2.00;;
27199;SDS011;14714;48.106;11.546;2022-08-19T13:53:50;2.20;;;2.00;;
27199;SDS011;14714;48.106;11.546;2022-08-19T13:56:17;2.47;;;2.10;;
27199;SDS011;14714;48.106;11.546;2022-08-19T13:58:51;2.17;;;1.98;;
27199;SDS011;14714;48.106;11.546;2022-08-19T14:01:20;2.47;;;2.28;;
27199;SDS011;14714;48.106;11.546;2022-08-19T14:03:50;3.30;;;2.40;;
27199;SDS011;14714;48.106;11.546;2022-08-19T14:06:17;2.75;;;2.50;;
27199;SDS011;14714;48.106;11.546;2022-08-19T14:08:44;3.05;;;2.50;;
27199;SDS011;14714;48.106;11.546;2022-08-19T14:11:11;2.80;;;2.60;;
27199;SDS011;14714;48.106;11.546;2022-08-19T14:13:39;2.80;;;2.50;;
27199;SDS011;14714;48.106;11.546;2022-08-19T14:16:09;3.10;;;2.70;;
27199;SDS011;14714;48.106;11.546;2022-08-19T14:18:37;3.28;;;2.97;;
27199;SDS011;14714;48.106;11.546;2022-08-19T14:21:05;3.30;;;3.00;;
27199;SDS011;14714;48.106;11.546;2022-08-19T14:23:33;3.13;;;2.83;;
27199;SDS011;14714;48.106;11.546;2022-08-19T14:26:09;3.20;;;2.90;;
27199;SDS011;14714;48.106;11.546;2022-08-19T14:28:38;3.83;;;2.67;;
27199;SDS011;14714;48.106;11.546;2022-08-19T14:31:07;3.33;;;3.03;;
27199;SDS011;14714;48.106;11.546;2022-08-19T14:33:35;3.20;;;2.90;;
27199;SDS011;14714;48.106;11.546;2022-08-19T14:36:03;3.25;;;2.67;;
27199;SDS011;14714;48.106;11.546;2022-08-19T14:38:30;2.65;;;2.45;;
27199;SDS011;14714;48.106;11.546;2022-08-19T14:41:15;3.00;;;2.28;;
27199;SDS011;14714;48.106;11.546;2022-08-19T14:43:44;2.70;;;2.50;;